sensor_id;sensor_type;location;lat;lon;timestamp;pressure;altitude;pressure_sealevel;temperature;humidity
60345;BME280;46188;52.324;8.032;2023-12-20T17:32:28;99754.00;;;5.56;100.00
60345;BME280;46188;52.324;8.032;2023-12-20T17:34:53;99759.66;;;5.81;100.00
60345;BME280;46188;52.324;8.032;2023-12-20T17:37:18;99747.00;;;6.02;100.00
60345;BME280;46188;52.324;8.032;2023-12-20T17:39:43;99747.38;;;6.22;100.00
60345;BME280;46188;52.324;8.032;2023-12-20T17:42:09;99737.94;;;6.34;100.00
60345;BME280;46188;52.324;8.032;2023-12-20T17:44:34;99741.53;;;6.37;100.00
60345;BME280;46188;52.324;8.032;2023-12-20T17:46:59;99741.50;;;6.36;100.00
60345;BME280;46188;52.324;8.032;2023-12-20T17:49:25;99732.91;;;6.44;100.00
60345;BME280;46188;52.324;8.032;2023-12-20T17:51:50;99722.44;;;6.46;100.00
60345;BME280;46188;52.324;8.032;2023-12-20T17:54:15;99717.28;;;6.51;100.00
60345;BME280;46188;52.324;8.032;2023-12-20T17:56:40;99708.63;;;6.56;100.00
60345;BME280;46188;52.324;8.032;2023-12-20T17:59:05;99711.25;;;6.56;100.00
60345;BME280;46188;52.324;8.032;2023-12-20T18:01:31;99703.41;;;6.56;100.00
60345;BME280;46188;52.324;8.032;2023-12-20T18:03:56;99699.06;;;6.58;100.00
60345;BME280;46188;52.324;8.032;2023-12-20T18:06:22;99699.06;;;6.58;100.00
60345;BME280;46188;52.324;8.032;2023-12-20T18:08:48;99693.03;;;6.62;100.00
60345;BME280;46188;52.324;8.032;2023-12-20T18:11:13;99688.72;;;6.68;100.00
60345;BME280;46188;52.324;8.032;2023-12-20T18:13:39;99680.88;;;6.68;100.00
60345;BME280;46188;52.324;8.032;2023-12-20T18:16:04;99675.59;;;6.66;100.00
60345;BME280;46188;52.324;8.032;2023-12-20T18:18:34;99680.84;;;6.66;100.00
60345;BME280;46188;52.324;8.032;2023-12-20T18:20:59;99684.25;;;6.59;100.00
60345;BME280;46188;52.324;8.032;2023-12-20T18:23:24;99679.88;;;6.59;100.00
60345;BME280;46188;52.324;8.032;2023-12-20T18:25:50;99678.16;;;6.61;100.00
60345;BME280;46188;52.324;8.032;2023-12-20T18:28:18;99688.69;;;6.64;100.00
60345;BME280;46188;52.324;8.032;2023-12-20T18:30:43;99674.75;;;6.67;100.00
60345;BME280;46188;52.324;8.032;2023-12-20T18:33:08;99667.72;;;6.64;100.00
60345;BME280;46188;52.324;8.032;2023-12-20T18:35:34;99667.72;;;6.63;100.00
60345;BME280;46188;52.324;8.032;2023-12-20T18:38:01;99673.00;;;6.68;100.00
60345;BME280;46188;52.324;8.032;2023-12-20T18:40:26;99659.09;;;6.72;100.00
60345;BME280;46188;52.324;8.032;2023-12-20T18:42:52;99652.16;;;6.74;100.00
60345;BME280;46188;52.324;8.032;2023-12-20T18:45:17;99637.25;;;6.70;100.00
60345;BME280;46188;52.324;8.032;2023-12-20T18:47:42;99645.06;;;6.67;100.00
60345;BME280;46188;52.324;8.032;2023-12-20T18:50:07;99622.41;;;6.69;100.00
60345;BME280;46188;52.324;8.032;2023-12-20T18:52:33;99621.53;;;6.71;100.00
60345;BME280;46188;52.324;8.032;2023-12-20T18:54:58;99623.31;;;6.72;100.00
60345;BME280;46188;52.324;8.032;2023-12-20T18:57:23;99603.22;;;6.71;100.00
60345;BME280;46188;52.324;8.032;2023-12-20T18:59:49;99605.81;;;6.71;100.00
60345;BME280;46188;52.324;8.032;2023-12-20T19:02:14;99606.69;;;6.72;100.00
60345;BME280;46188;52.324;8.032;2023-12-20T19:04:39;99594.47;;;6.71;100.00
60345;BME280;46188;52.324;8.032;2023-12-20T19:07:04;99599.75;;;6.74;100.00
60345;BME280;46188;52.324;8.032;2023-12-20T19:09:29;99605.03;;;6.75;100.00
60345;BME280;46188;52.324;8.032;2023-12-20T19:11:55;99599.78;;;6.77;100.00
60345;BME280;46188;52.324;8.032;2023-12-20T19:14:20;99579.75;;;6.79;100.00
60345;BME280;46188;52.324;8.032;2023-12-20T19:16:46;99577.13;;;6.79;100.00
60345;BME280;46188;52.324;8.032;2023-12-20T19:19:12;99579.75;;;6.80;100.00
60345;BME280;46188;52.324;8.032;2023-12-20T19:21:37;99570.13;;;6.78;100.00
60345;BME280;46188;52.324;8.032;2023-12-20T19:24:02;99560.41;;;6.69;100.00
60345;BME280;46188;52.324;8.032;2023-12-20T19:26:27;99567.44;;;6.73;100.00
60345;BME280;46188;52.324;8.032;2023-12-20T19:28:53;99559.63;;;6.78;100.00
60345;BME280;46188;52.324;8.032;2023-12-20T19:31:18;99563.19;;;6.84;100.00
60345;BME280;46188;52.324;8.032;2023-12-20T19:33:44;99547.34;;;6.72;100.00
60345;BME280;46188;52.324;8.032;2023-12-20T19:36:12;99544.78;;;6.77;100.00
60345;BME280;46188;52.324;8.032;2023-12-20T19:38:38;99552.63;;;6.77;100.00
60345;BME280;46188;52.324;8.032;2023-12-20T19:41:03;99550.94;;;6.79;100.00
60345;BME280;46188;52.324;8.032;2023-12-20T19:43:28;99545.72;;;6.80;100.00
60345;BME280;46188;52.324;8.032;2023-12-20T19:45:53;99545.72;;;6.85;100.00
60345;BME280;46188;52.324;8.032;2023-12-20T19:48:19;99532.66;;;6.83;100.00
60345;BME280;46188;52.324;8.032;2023-12-20T19:50:44;99528.19;;;6.78;100.00
60345;BME280;46188;52.324;8.032;2023-12-20T19:53:10;99529.97;;;6.79;100.00
60345;BME280;46188;52.324;8.032;2023-12-20T19:55:35;99513.41;;;6.83;100.00
60345;BME280;46188;52.324;8.032;2023-12-20T19:58:01;99500.28;;;6.81;100.00
60345;BME280;46188;52.324;8.032;2023-12-20T20:00:26;99500.31;;;6.83;100.00
60345;BME280;46188;52.324;8.032;2023-12-20T20:02:52;99503.81;;;6.85;100.00
60345;BME280;46188;52.324;8.032;2023-12-20T20:05:17;99489.03;;;6.89;100.00
60345;BME280;46188;52.324;8.032;2023-12-20T20:07:43;99488.16;;;6.90;100.00
60345;BME280;46188;52.324;8.032;2023-12-20T20:10:08;99457.59;;;6.92;100.00
60345;BME280;46188;52.324;8.032;2023-12-20T20:12:33;99481.16;;;6.87;100.00
60345;BME280;46188;52.324;8.032;2023-12-20T20:14:59;99464.59;;;6.93;100.00
60345;BME280;46188;52.324;8.032;2023-12-20T20:17:24;99464.59;;;6.91;100.00
60345;BME280;46188;52.324;8.032;2023-12-20T20:19:50;99469.00;;;6.95;100.00
60345;BME280;46188;52.324;8.032;2023-12-20T20:22:15;99463.75;;;6.92;100.00
60345;BME280;46188;52.324;8.032;2023-12-20T20:24:41;99441.03;;;6.93;100.00
60345;BME280;46188;52.324;8.032;2023-12-20T20:27:07;99459.38;;;6.93;100.00
60345;BME280;46188;52.324;8.032;2023-12-20T20:29:32;99435.81;;;6.94;100.00
60345;BME280;46188;52.324;8.032;2023-12-20T20:31:57;99439.28;;;6.95;100.00
60345;BME280;46188;52.324;8.032;2023-12-20T20:34:22;99434.94;;;6.95;100.00
60345;BME280;46188;52.324;8.032;2023-12-20T20:36:52;99420.09;;;6.94;100.00
60345;BME280;46188;52.324;8.032;2023-12-20T20:39:17;99426.19;;;6.95;100.00
60345;BME280;46188;52.324;8.032;2023-12-20T20:41:43;99436.72;;;6.98;100.00
60345;BME280;46188;52.324;8.032;2023-12-20T20:44:08;99434.94;;;6.94;100.00
60345;BME280;46188;52.324;8.032;2023-12-20T20:46:33;99430.53;;;6.91;100.00
60345;BME280;46188;52.324;8.032;2023-12-20T20:48:59;99430.56;;;6.94;100.00
60345;BME280;46188;52.324;8.032;2023-12-20T20:51:24;99434.97;;;6.97;100.00
60345;BME280;46188;52.324;8.032;2023-12-20T20:53:49;99441.03;;;6.94;100.00
60345;BME280;46188;52.324;8.032;2023-12-20T20:56:15;99432.38;;;7.01;100.00
60345;BME280;46188;52.324;8.032;2023-12-20T20:58:40;99416.59;;;6.92;100.00
60345;BME280;46188;52.324;8.032;2023-12-20T21:01:05;99409.59;;;6.93;100.00
60345;BME280;46188;52.324;8.032;2023-12-20T21:03:31;99411.38;;;6.97;100.00
60345;BME280;46188;52.324;8.032;2023-12-20T21:05:56;99406.16;;;6.98;100.00
60345;BME280;46188;52.324;8.032;2023-12-20T21:08:21;99387.81;;;7.01;100.00
60345;BME280;46188;52.324;8.032;2023-12-20T21:10:46;99400.97;;;7.08;100.00
60345;BME280;46188;52.324;8.032;2023-12-20T21:13:13;99392.19;;;7.01;100.00
60345;BME280;46188;52.324;8.032;2023-12-20T21:15:38;99385.25;;;7.06;100.00
60345;BME280;46188;52.324;8.032;2023-12-20T21:18:03;99387.03;;;7.09;100.00
60345;BME280;46188;52.324;8.032;2023-12-20T21:20:28;99378.31;;;7.13;100.00
60345;BME280;46188;52.324;8.032;2023-12-20T21:22:53;99367.84;;;7.16;100.00
60345;BME280;46188;52.324;8.032;2023-12-20T21:25:19;99357.34;;;7.14;100.00
60345;BME280;46188;52.324;8.032;2023-12-20T21:27:46;99355.59;;;7.15;100.00
60345;BME280;46188;52.324;8.032;2023-12-20T21:30:11;99345.16;;;7.21;100.00
60345;BME280;46188;52.324;8.032;2023-12-20T21:32:37;99337.31;;;7.24;100.00
60345;BME280;46188;52.324;8.032;2023-12-20T21:35:02;99332.13;;;7.30;100.00
60345;BME280;46188;52.324;8.032;2023-12-20T21:37:27;99337.38;;;7.30;100.00
60345;BME280;46188;52.324;8.032;2023-12-20T21:39:53;99326.88;;;7.29;100.00
60345;BME280;46188;52.324;8.032;2023-12-20T21:42:18;99314.63;;;7.29;100.00
60345;BME280;46188;52.324;8.032;2023-12-20T21:44:43;99329.50;;;7.30;100.00
60345;BME280;46188;52.324;8.032;2023-12-20T21:47:08;99302.38;;;7.30;100.00
60345;BME280;46188;52.324;8.032;2023-12-20T21:49:33;99306.75;;;7.29;100.00
60345;BME280;46188;52.324;8.032;2023-12-20T21:51:58;99310.25;;;7.31;100.00
60345;BME280;46188;52.324;8.032;2023-12-20T21:54:23;99300.66;;;7.32;100.00
60345;BME280;46188;52.324;8.032;2023-12-20T21:56:49;99305.00;;;7.30;100.00
60345;BME280;46188;52.324;8.032;2023-12-20T21:59:15;99315.50;;;7.33;100.00
60345;BME280;46188;52.324;8.032;2023-12-20T22:01:41;99312.91;;;7.34;100.00
60345;BME280;46188;52.324;8.032;2023-12-20T22:04:07;99316.41;;;7.35;100.00
60345;BME280;46188;52.324;8.032;2023-12-20T22:06:33;99325.19;;;7.38;100.00
60345;BME280;46188;52.324;8.032;2023-12-20T22:08:58;99327.81;;;7.38;100.00
60345;BME280;46188;52.324;8.032;2023-12-20T22:11:23;99333.06;;;7.40;100.00
60345;BME280;46188;52.324;8.032;2023-12-20T22:13:48;99331.25;;;7.36;100.00
60345;BME280;46188;52.324;8.032;2023-12-20T22:16:13;99331.25;;;7.36;100.00
60345;BME280;46188;52.324;8.032;2023-12-20T22:18:40;99331.28;;;7.37;100.00
60345;BME280;46188;52.324;8.032;2023-12-20T22:21:05;99338.31;;;7.40;100.00
60345;BME280;46188;52.324;8.032;2023-12-20T22:23:31;99337.41;;;7.41;100.00
60345;BME280;46188;52.324;8.032;2023-12-20T22:25:56;99329.59;;;7.47;100.00
60345;BME280;46188;52.324;8.032;2023-12-20T22:28:21;99344.47;;;7.48;100.00
60345;BME280;46188;52.324;8.032;2023-12-20T22:30:46;99344.47;;;7.51;100.00
60345;BME280;46188;52.324;8.032;2023-12-20T22:33:11;99332.22;;;7.52;100.00
60345;BME280;46188;52.324;8.032;2023-12-20T22:35:36;99341.81;;;7.47;100.00
60345;BME280;46188;52.324;8.032;2023-12-20T22:38:01;99333.97;;;7.48;100.00
60345;BME280;46188;52.324;8.032;2023-12-20T22:40:27;99330.47;;;7.51;100.00
60345;BME280;46188;52.324;8.032;2023-12-20T22:42:52;99340.13;;;7.53;100.00
60345;BME280;46188;52.324;8.032;2023-12-20T22:45:17;99332.22;;;7.52;100.00
60345;BME280;46188;52.324;8.032;2023-12-20T22:47:42;99325.22;;;7.51;100.00
60345;BME280;46188;52.324;8.032;2023-12-20T22:50:08;99326.13;;;7.51;100.00
60345;BME280;46188;52.324;8.032;2023-12-20T22:52:33;99313.91;;;7.58;100.00
60345;BME280;46188;52.324;8.032;2023-12-20T22:54:58;99298.19;;;7.58;100.00
60345;BME280;46188;52.324;8.032;2023-12-20T22:57:23;99302.53;;;7.57;100.00
60345;BME280;46188;52.324;8.032;2023-12-20T22:59:49;99306.03;;;7.55;100.00
60345;BME280;46188;52.324;8.032;2023-12-20T23:02:14;99292.06;;;7.61;100.00
60345;BME280;46188;52.324;8.032;2023-12-20T23:04:39;99298.19;;;7.64;100.00
60345;BME280;46188;52.324;8.032;2023-12-20T23:07:05;99294.69;;;7.65;100.00
60345;BME280;46188;52.324;8.032;2023-12-20T23:09:31;99298.16;;;7.61;100.00
60345;BME280;46188;52.324;8.032;2023-12-20T23:11:56;99291.19;;;7.60;100.00
60345;BME280;46188;52.324;8.032;2023-12-20T23:14:21;99292.06;;;7.61;100.00
60345;BME280;46188;52.324;8.032;2023-12-20T23:16:47;99290.28;;;7.60;100.00
60345;BME280;46188;52.324;8.032;2023-12-20T23:19:12;99289.44;;;7.62;100.00
60345;BME280;46188;52.324;8.032;2023-12-20T23:21:37;99292.94;;;7.58;100.00
60345;BME280;46188;52.324;8.032;2023-12-20T23:24:02;99284.22;;;7.65;100.00
60345;BME280;46188;52.324;8.032;2023-12-20T23:26:27;99271.13;;;7.70;100.00
60345;BME280;46188;52.324;8.032;2023-12-20T23:28:53;99263.25;;;7.71;100.00
60345;BME280;46188;52.324;8.032;2023-12-20T23:31:24;99257.13;;;7.65;100.00
60345;BME280;46188;52.324;8.032;2023-12-20T23:33:50;99265.84;;;7.67;100.00
60345;BME280;46188;52.324;8.032;2023-12-20T23:36:15;99236.13;;;7.71;100.00
60345;BME280;46188;52.324;8.032;2023-12-20T23:38:40;99247.50;;;7.67;100.00
60345;BME280;46188;52.324;8.032;2023-12-20T23:41:05;99242.25;;;7.65;100.00
60345;BME280;46188;52.324;8.032;2023-12-20T23:43:30;99243.09;;;7.66;100.00
60345;BME280;46188;52.324;8.032;2023-12-20T23:45:56;99244.00;;;7.66;100.00
60345;BME280;46188;52.324;8.032;2023-12-20T23:48:21;99242.28;;;7.71;100.00
60345;BME280;46188;52.324;8.032;2023-12-20T23:50:47;99246.59;;;7.69;100.00
60345;BME280;46188;52.324;8.032;2023-12-20T23:53:14;99238.75;;;7.69;100.00
60345;BME280;46188;52.324;8.032;2023-12-20T23:55:39;99244.91;;;7.81;100.00
60345;BME280;46188;52.324;8.032;2023-12-20T23:58:05;99239.63;;;7.79;100.00
